Time;durP1;ratioP1;P1;durP2;ratioP2;P2;SDS_P1;SDS_P2;PMS_P1;PMS_P2;Temp;Humidity;BMP_temperature;BMP_pressure;BME280_temperature;BME280_humidity;BME280_pressure;Samples;Min_cycle;Max_cycle;Signal;HPM_P1;HPM_P2
2023/12/30 00:00:19;;;;;;;;;;;8.60;99.90;;;;;;5011675;28;19943;-75
2023/12/30 00:02:48;;;;;;;;;;;8.50;99.90;;;;;;5005830;28;20105;-73
2023/12/30 00:05:16;;;;;;;;;;;8.50;99.90;;;;;;5007047;28;19932;-77
2023/12/30 00:07:44;;;;;;;;;;;8.40;99.90;;;;;;5013363;28;20343;-75
2023/12/30 00:10:14;;;;;;;;;;;8.40;99.90;;;;;;5014351;28;20434;-74
2023/12/30 00:12:42;;;;;;;;;;;8.40;99.90;;;;;;5028218;28;19921;-74
2023/12/30 00:15:10;;;;;;;;;;;8.40;99.90;;;;;;5032570;28;19921;-73
2023/12/30 00:17:38;;;;;;;;;;;8.30;99.90;;;;;;5032660;28;20040;-74
2023/12/30 00:20:06;;;;;;;;;;;8.30;99.90;;;;;;5032248;28;19924;-74
2023/12/30 00:22:34;;;;;;;;;;;8.30;99.90;;;;;;5031778;28;20516;-75
2023/12/30 00:25:02;;;;;;;;;;;8.30;99.90;;;;;;5028633;28;19928;-74
2023/12/30 00:27:31;;;;;;;;;;;8.30;99.90;;;;;;5032363;28;20017;-74
2023/12/30 00:29:59;;;;;;;;;;;8.40;99.90;;;;;;5031309;28;19974;-75
2023/12/30 00:32:27;;;;;;;;;;;8.30;99.90;;;;;;5032748;28;19921;-75
2023/12/30 00:34:54;;;;;;;;;;;8.30;99.90;;;;;;5032001;28;20011;-75
2023/12/30 00:37:22;;;;;;;;;;;8.30;99.90;;;;;;5030627;28;19925;-75
2023/12/30 00:39:50;;;;;;;;;;;8.20;99.90;;;;;;5032052;28;20338;-75
2023/12/30 00:42:18;;;;;;;;;;;8.20;99.90;;;;;;5032005;28;19964;-75
2023/12/30 00:44:47;;;;;;;;;;;8.20;99.90;;;;;;5032367;28;20502;-75
2023/12/30 00:47:17;;;;;;;;;;;8.20;99.90;;;;;;5025734;28;19923;-74
2023/12/30 00:49:45;;;;;;;;;;;8.10;99.90;;;;;;5031385;28;19957;-74
2023/12/30 00:52:13;;;;;;;;;;;8.10;99.90;;;;;;5014229;28;19921;-75
2023/12/30 00:54:40;;;;;;;;;;;8.10;99.90;;;;;;5031730;28;20011;-75
2023/12/30 00:57:17;;;;;;;;;;;8.00;99.90;;;;;;5032074;28;20291;-75
2023/12/30 00:59:46;;;;;;;;;;;8.00;99.90;;;;;;5031516;28;19965;-74
2023/12/30 01:02:14;;;;;;;;;;;8.00;99.90;;;;;;5031622;28;19979;-74
2023/12/30 01:04:42;;;;;;;;;;;7.90;99.90;;;;;;5031538;28;19924;-74
2023/12/30 01:07:10;;;;;;;;;;;8.00;99.90;;;;;;5031855;28;19920;-73
2023/12/30 01:09:38;;;;;;;;;;;7.90;99.90;;;;;;5030910;28;19921;-72
2023/12/30 01:12:06;;;;;;;;;;;7.90;99.90;;;;;;5031510;28;19932;-72
2023/12/30 01:14:34;;;;;;;;;;;7.90;99.90;;;;;;5031219;28;19928;-73
2023/12/30 01:17:03;;;;;;;;;;;7.90;99.90;;;;;;5013092;28;19927;-73
2023/12/30 01:19:31;;;;;;;;;;;7.90;99.90;;;;;;5030991;28;19921;-72
2023/12/30 01:21:59;;;;;;;;;;;7.90;99.90;;;;;;5031501;28;20008;-72
2023/12/30 01:24:27;;;;;;;;;;;7.90;99.90;;;;;;5023143;28;19944;-72
2023/12/30 01:26:55;;;;;;;;;;;7.90;99.90;;;;;;5030952;28;19924;-72
2023/12/30 01:29:23;;;;;;;;;;;8.00;99.90;;;;;;5029622;28;19925;-73
2023/12/30 01:31:51;;;;;;;;;;;8.00;99.90;;;;;;5031233;28;19928;-73
2023/12/30 01:34:21;;;;;;;;;;;8.00;99.90;;;;;;5030870;28;19921;-73
2023/12/30 01:36:49;;;;;;;;;;;8.00;99.90;;;;;;5031120;28;19921;-73
2023/12/30 01:39:17;;;;;;;;;;;8.00;99.90;;;;;;5030498;28;19946;-74
2023/12/30 01:41:45;;;;;;;;;;;8.00;99.90;;;;;;5030045;28;20288;-73
2023/12/30 01:44:13;;;;;;;;;;;7.90;99.90;;;;;;5030549;28;19921;-73
2023/12/30 01:46:41;;;;;;;;;;;7.90;99.90;;;;;;5029817;28;19921;-73
2023/12/30 01:49:09;;;;;;;;;;;7.90;99.90;;;;;;5030169;28;19960;-75
2023/12/30 01:51:38;;;;;;;;;;;7.90;99.90;;;;;;5031038;28;19960;-75
2023/12/30 01:54:06;;;;;;;;;;;7.90;99.90;;;;;;5030682;28;19921;-74
2023/12/30 01:56:35;;;;;;;;;;;7.90;99.90;;;;;;5030990;28;20404;-74
2023/12/30 01:59:03;;;;;;;;;;;7.90;99.90;;;;;;5030355;28;19925;-74
2023/12/30 02:01:31;;;;;;;;;;;7.90;99.90;;;;;;5029061;28;19964;-73
2023/12/30 02:03:59;;;;;;;;;;;8.00;99.90;;;;;;5030554;28;19925;-74
2023/12/30 02:06:26;;;;;;;;;;;8.10;99.90;;;;;;5030887;28;19975;-74
2023/12/30 02:08:56;;;;;;;;;;;8.10;99.90;;;;;;5026120;28;19955;-74
2023/12/30 02:11:24;;;;;;;;;;;8.00;99.90;;;;;;5022733;28;20299;-74
2023/12/30 02:13:52;;;;;;;;;;;8.00;99.90;;;;;;5029138;28;19929;-74
2023/12/30 02:16:20;;;;;;;;;;;7.90;99.90;;;;;;5027412;28;19928;-74
2023/12/30 02:18:48;;;;;;;;;;;7.90;99.90;;;;;;5025015;28;19920;-72
2023/12/30 02:21:16;;;;;;;;;;;7.90;99.90;;;;;;5004001;28;19921;-75
2023/12/30 02:23:51;;;;;;;;;;;7.90;99.90;;;;;;5022271;28;19921;-75
2023/12/30 02:26:19;;;;;;;;;;;7.90;99.90;;;;;;5023431;28;19929;-76
2023/12/30 02:28:46;;;;;;;;;;;7.90;99.90;;;;;;5028325;28;19925;-74
2023/12/30 02:31:14;;;;;;;;;;;7.90;99.90;;;;;;5021838;28;19928;-74
2023/12/30 02:33:42;;;;;;;;;;;7.80;99.90;;;;;;5021872;28;19929;-75
2023/12/30 02:36:10;;;;;;;;;;;7.80;99.90;;;;;;5026510;28;19929;-73
2023/12/30 02:38:38;;;;;;;;;;;7.80;99.90;;;;;;5026747;28;19921;-72
2023/12/30 02:41:07;;;;;;;;;;;7.80;99.90;;;;;;5028036;28;19920;-73
2023/12/30 02:43:40;;;;;;;;;;;7.80;99.90;;;;;;5030678;28;19994;-73
2023/12/30 02:46:08;;;;;;;;;;;7.80;99.90;;;;;;5029135;28;19928;-77
2023/12/30 02:48:36;;;;;;;;;;;7.70;99.90;;;;;;5029812;28;19925;-74
2023/12/30 02:51:04;;;;;;;;;;;7.70;99.90;;;;;;5030735;28;20288;-75
2023/12/30 02:53:31;;;;;;;;;;;7.70;99.90;;;;;;5033083;28;19921;-73
2023/12/30 02:55:59;;;;;;;;;;;7.70;99.90;;;;;;5034164;28;19924;-74
2023/12/30 02:58:28;;;;;;;;;;;7.80;99.90;;;;;;5034048;28;19972;-71
2023/12/30 03:00:56;;;;;;;;;;;7.80;99.90;;;;;;5032526;28;19931;-72
2023/12/30 03:03:24;;;;;;;;;;;7.70;99.90;;;;;;5033722;28;19928;-73
2023/12/30 03:05:52;;;;;;;;;;;7.70;99.90;;;;;;5033832;28;19921;-73
2023/12/30 03:08:19;;;;;;;;;;;7.60;99.90;;;;;;5033475;28;19925;-73
2023/12/30 03:10:47;;;;;;;;;;;7.70;99.90;;;;;;5033327;28;19971;-73
2023/12/30 03:13:15;;;;;;;;;;;7.60;99.90;;;;;;5023870;28;19972;-74
2023/12/30 03:15:44;;;;;;;;;;;7.70;99.90;;;;;;5033357;28;19921;-72
2023/12/30 03:18:12;;;;;;;;;;;7.70;99.90;;;;;;5032698;28;20359;-72
2023/12/30 03:20:40;;;;;;;;;;;7.70;99.90;;;;;;5032062;28;20376;-74
2023/12/30 03:23:08;;;;;;;;;;;7.80;99.90;;;;;;5034113;28;19927;-75
2023/12/30 03:25:37;;;;;;;;;;;7.80;99.90;;;;;;5033559;28;19921;-76
2023/12/30 03:28:05;;;;;;;;;;;7.80;99.90;;;;;;5033731;28;20353;-74
2023/12/30 03:30:33;;;;;;;;;;;7.80;99.90;;;;;;5032144;28;19991;-74
2023/12/30 03:33:02;;;;;;;;;;;7.70;99.90;;;;;;5032170;28;19931;-73
2023/12/30 03:35:32;;;;;;;;;;;7.70;99.90;;;;;;5033386;28;19929;-74
2023/12/30 03:37:59;;;;;;;;;;;7.70;99.90;;;;;;5033756;28;19921;-73
2023/12/30 03:40:27;;;;;;;;;;;7.60;99.90;;;;;;5032194;28;19975;-74
2023/12/30 03:42:55;;;;;;;;;;;7.50;99.90;;;;;;5033166;28;19932;-74
2023/12/30 03:45:23;;;;;;;;;;;7.50;99.90;;;;;;5033125;28;19921;-76
2023/12/30 03:47:52;;;;;;;;;;;7.60;99.90;;;;;;5033484;28;20348;-74
2023/12/30 03:50:21;;;;;;;;;;;7.50;99.90;;;;;;5031885;28;20390;-74
2023/12/30 03:52:50;;;;;;;;;;;7.50;99.90;;;;;;5033120;28;19921;-78
2023/12/30 03:55:17;;;;;;;;;;;7.50;99.90;;;;;;5033063;28;19920;-77
2023/12/30 03:57:45;;;;;;;;;;;7.50;99.90;;;;;;5032329;28;19932;-76
2023/12/30 04:00:13;;;;;;;;;;;7.60;99.90;;;;;;5030719;28;20438;-76
2023/12/30 04:02:41;;;;;;;;;;;7.60;99.90;;;;;;5023905;28;19944;-70
2023/12/30 04:05:09;;;;;;;;;;;7.70;99.90;;;;;;5029580;28;20016;-70
2023/12/30 04:07:38;;;;;;;;;;;7.70;99.90;;;;;;5031576;28;19921;-71
2023/12/30 04:10:07;;;;;;;;;;;7.70;99.90;;;;;;5006688;28;19929;-70
2023/12/30 04:12:35;;;;;;;;;;;7.70;99.90;;;;;;5010911;28;19925;-69
2023/12/30 04:15:03;;;;;;;;;;;7.70;99.90;;;;;;5012232;28;19949;-69
2023/12/30 04:17:31;;;;;;;;;;;7.80;99.90;;;;;;5008433;28;19933;-69
2023/12/30 04:19:59;;;;;;;;;;;7.80;99.90;;;;;;5006242;28;19929;-70
2023/12/30 04:22:28;;;;;;;;;;;7.80;99.90;;;;;;5008568;28;19968;-70
2023/12/30 04:24:57;;;;;;;;;;;7.70;99.90;;;;;;5007538;28;20020;-70
2023/12/30 04:27:25;;;;;;;;;;;7.80;99.90;;;;;;5006297;28;19935;-69
2023/12/30 04:29:53;;;;;;;;;;;7.80;99.90;;;;;;5009225;28;19979;-68
2023/12/30 04:32:21;;;;;;;;;;;7.70;99.90;;;;;;5006046;28;19929;-68
2023/12/30 04:34:49;;;;;;;;;;;7.70;99.90;;;;;;5007585;28;20593;-70
2023/12/30 04:37:17;;;;;;;;;;;7.70;99.90;;;;;;5004990;28;19929;-69
2023/12/30 04:39:45;;;;;;;;;;;7.70;99.90;;;;;;5007901;28;19932;-71
2023/12/30 04:42:15;;;;;;;;;;;7.70;99.90;;;;;;5012172;28;19996;-69
2023/12/30 04:44:42;;;;;;;;;;;7.70;99.90;;;;;;5009378;28;20381;-69
2023/12/30 04:47:10;;;;;;;;;;;7.60;99.90;;;;;;5011759;28;19929;-71
2023/12/30 04:49:38;;;;;;;;;;;7.60;99.90;;;;;;5010279;28;19960;-70
2023/12/30 04:52:06;;;;;;;;;;;7.60;99.90;;;;;;5005677;28;19948;-69
2023/12/30 04:54:34;;;;;;;;;;;7.60;99.90;;;;;;5010899;28;19986;-69
2023/12/30 04:57:02;;;;;;;;;;;7.60;99.90;;;;;;5007059;28;19925;-71
2023/12/30 04:59:31;;;;;;;;;;;7.50;99.90;;;;;;5012042;28;20407;-70
2023/12/30 05:01:59;;;;;;;;;;;7.50;99.90;;;;;;5007688;28;19933;-69
2023/12/30 05:04:27;;;;;;;;;;;7.60;99.90;;;;;;5006463;28;19940;-70
2023/12/30 05:06:55;;;;;;;;;;;7.60;99.90;;;;;;5008339;28;19976;-68
2023/12/30 05:09:23;;;;;;;;;;;7.60;99.90;;;;;;5006600;28;19936;-68
2023/12/30 05:11:50;;;;;;;;;;;7.60;99.90;;;;;;5006920;28;20010;-70
2023/12/30 05:14:19;;;;;;;;;;;7.60;99.90;;;;;;5007736;28;19925;-70
2023/12/30 05:16:49;;;;;;;;;;;7.60;99.90;;;;;;5006196;28;20440;-71
2023/12/30 05:19:17;;;;;;;;;;;7.50;99.90;;;;;;5007759;28;19991;-69
2023/12/30 05:21:49;;;;;;;;;;;7.60;99.90;;;;;;5010373;28;20450;-70
2023/12/30 05:24:17;;;;;;;;;;;7.60;99.90;;;;;;5007948;28;20044;-70
2023/12/30 05:26:45;;;;;;;;;;;7.70;99.90;;;;;;5006820;28;19929;-70
2023/12/30 05:29:13;;;;;;;;;;;7.70;99.90;;;;;;5005045;28;19925;-69
2023/12/30 05:31:41;;;;;;;;;;;7.70;99.90;;;;;;5004833;28;19937;-69
2023/12/30 05:34:10;;;;;;;;;;;7.70;99.90;;;;;;5007250;28;20053;-71
2023/12/30 05:36:38;;;;;;;;;;;7.80;99.90;;;;;;5008966;28;19951;-70
2023/12/30 05:39:06;;;;;;;;;;;7.80;99.90;;;;;;5005687;28;19921;-69
2023/12/30 05:41:33;;;;;;;;;;;7.90;99.90;;;;;;5010792;28;19921;-70
2023/12/30 05:44:01;;;;;;;;;;;7.90;99.90;;;;;;5009437;28;20319;-70
2023/12/30 05:46:30;;;;;;;;;;;7.90;99.90;;;;;;5009889;28;19933;-71
2023/12/30 05:48:58;;;;;;;;;;;7.90;99.90;;;;;;5012837;28;20471;-71
2023/12/30 05:51:28;;;;;;;;;;;8.00;99.90;;;;;;5007258;28;19932;-69
2023/12/30 05:53:55;;;;;;;;;;;8.10;99.90;;;;;;5013898;28;19928;-69
2023/12/30 05:56:24;;;;;;;;;;;8.10;99.90;;;;;;5007355;28;19925;-70
2023/12/30 05:58:53;;;;;;;;;;;8.10;99.90;;;;;;5011194;28;19933;-69
2023/12/30 06:01:21;;;;;;;;;;;8.20;99.90;;;;;;5003330;28;19925;-70
2023/12/30 06:03:49;;;;;;;;;;;8.10;99.90;;;;;;5011208;28;19928;-70
2023/12/30 06:06:17;;;;;;;;;;;8.10;99.90;;;;;;5005868;28;19936;-69
2023/12/30 06:08:46;;;;;;;;;;;8.10;99.90;;;;;;5006973;28;20049;-68
2023/12/30 06:11:14;;;;;;;;;;;8.10;99.90;;;;;;5011811;28;20015;-68
2023/12/30 06:13:42;;;;;;;;;;;8.10;99.90;;;;;;5005173;28;20436;-70
2023/12/30 06:16:10;;;;;;;;;;;8.10;99.90;;;;;;5003705;28;19926;-68
2023/12/30 06:18:38;;;;;;;;;;;8.10;99.90;;;;;;5005684;28;20018;-71
2023/12/30 06:21:06;;;;;;;;;;;8.10;99.90;;;;;;5006245;28;19921;-70
2023/12/30 06:23:34;;;;;;;;;;;8.10;99.90;;;;;;5007905;28;19948;-68
2023/12/30 06:26:03;;;;;;;;;;;8.10;99.90;;;;;;5011203;28;20412;-71
2023/12/30 06:28:31;;;;;;;;;;;8.10;99.90;;;;;;5004105;28;19936;-69
2023/12/30 06:30:59;;;;;;;;;;;8.20;99.90;;;;;;5004690;28;20071;-70
2023/12/30 06:33:27;;;;;;;;;;;8.10;99.90;;;;;;5009313;28;19925;-71
2023/12/30 06:35:55;;;;;;;;;;;8.10;99.90;;;;;;5005484;28;19925;-70
2023/12/30 06:38:23;;;;;;;;;;;8.10;99.90;;;;;;5006980;28;20418;-71
2023/12/30 06:40:50;;;;;;;;;;;8.20;99.90;;;;;;5010518;28;19933;-71
2023/12/30 06:43:20;;;;;;;;;;;8.20;99.90;;;;;;5008058;28;19925;-71
2023/12/30 06:45:48;;;;;;;;;;;8.30;99.90;;;;;;5008141;28;19933;-72
2023/12/30 06:48:17;;;;;;;;;;;8.30;99.90;;;;;;5005713;28;19925;-73
2023/12/30 06:50:46;;;;;;;;;;;8.30;99.90;;;;;;5009007;28;20388;-73
2023/12/30 06:53:17;;;;;;;;;;;8.20;99.90;;;;;;5019721;28;19921;-71
2023/12/30 06:55:45;;;;;;;;;;;8.30;99.90;;;;;;5028583;28;20303;-72
2023/12/30 06:58:15;;;;;;;;;;;8.30;99.90;;;;;;5030463;28;19924;-71
2023/12/30 07:00:44;;;;;;;;;;;8.30;99.90;;;;;;5029049;28;19928;-71
2023/12/30 07:03:13;;;;;;;;;;;8.30;99.90;;;;;;5029615;28;19925;-71
2023/12/30 07:05:41;;;;;;;;;;;8.30;99.90;;;;;;5028885;28;19928;-71
2023/12/30 07:08:09;;;;;;;;;;;8.30;99.90;;;;;;5029219;28;20000;-71
2023/12/30 07:10:37;;;;;;;;;;;8.20;99.90;;;;;;5028276;28;19921;-72
2023/12/30 07:13:06;;;;;;;;;;;8.20;99.90;;;;;;5029995;28;19921;-70
2023/12/30 07:15:34;;;;;;;;;;;8.20;99.90;;;;;;5028397;28;19921;-71
2023/12/30 07:18:03;;;;;;;;;;;8.10;99.90;;;;;;5029355;28;19936;-71
2023/12/30 07:20:32;;;;;;;;;;;8.10;99.90;;;;;;5027962;28;19971;-71
2023/12/30 07:23:02;;;;;;;;;;;8.10;99.90;;;;;;5028571;28;19925;-71
2023/12/30 07:25:30;;;;;;;;;;;8.10;99.90;;;;;;5029897;28;19925;-71
2023/12/30 07:27:58;;;;;;;;;;;8.00;99.90;;;;;;5026820;28;20018;-71
2023/12/30 07:30:26;;;;;;;;;;;8.00;99.90;;;;;;5030228;28;20344;-71
2023/12/30 07:32:53;;;;;;;;;;;8.00;99.90;;;;;;5029038;28;19928;-72
2023/12/30 07:35:24;;;;;;;;;;;8.00;99.90;;;;;;5027222;28;20457;-71
2023/12/30 07:37:51;;;;;;;;;;;7.90;99.90;;;;;;5028629;28;19932;-71
2023/12/30 07:40:19;;;;;;;;;;;8.00;99.90;;;;;;5030176;28;20449;-70
2023/12/30 07:42:47;;;;;;;;;;;8.00;99.90;;;;;;5032103;28;19921;-71
2023/12/30 07:45:16;;;;;;;;;;;8.00;99.90;;;;;;5032767;28;19976;-70
2023/12/30 07:47:44;;;;;;;;;;;8.00;99.90;;;;;;5031556;28;19931;-70
2023/12/30 07:50:11;;;;;;;;;;;8.00;99.90;;;;;;5032112;28;19975;-71
2023/12/30 07:52:41;;;;;;;;;;;8.10;99.90;;;;;;5031936;28;19999;-72
2023/12/30 07:55:09;;;;;;;;;;;8.10;99.90;;;;;;5030798;28;19929;-70
2023/12/30 07:57:37;;;;;;;;;;;8.20;99.90;;;;;;5030756;28;19921;-71
2023/12/30 08:00:06;;;;;;;;;;;8.20;99.90;;;;;;5031433;28;19921;-70
2023/12/30 08:02:34;;;;;;;;;;;8.10;99.90;;;;;;5032185;28;19924;-71
2023/12/30 08:05:01;;;;;;;;;;;8.20;99.90;;;;;;5030302;28;20389;-71
2023/12/30 08:07:29;;;;;;;;;;;8.20;99.90;;;;;;5031081;28;19929;-72
2023/12/30 08:09:58;;;;;;;;;;;8.20;99.90;;;;;;5031539;28;20097;-71
2023/12/30 08:12:27;;;;;;;;;;;8.20;99.90;;;;;;5017974;28;19921;-72
2023/12/30 08:14:55;;;;;;;;;;;8.20;99.90;;;;;;5021831;28;20040;-72
2023/12/30 08:17:23;;;;;;;;;;;8.20;99.90;;;;;;5025365;28;19928;-72
2023/12/30 08:19:50;;;;;;;;;;;8.20;99.90;;;;;;5031713;28;19991;-71
2023/12/30 08:22:19;;;;;;;;;;;8.20;99.90;;;;;;5031190;28;20398;-72
2023/12/30 08:24:48;;;;;;;;;;;8.30;99.90;;;;;;5032228;28;19921;-72
2023/12/30 08:27:17;;;;;;;;;;;8.30;99.90;;;;;;5032354;28;19921;-72
2023/12/30 08:29:45;;;;;;;;;;;8.30;99.90;;;;;;5031541;28;19921;-71
2023/12/30 08:32:12;;;;;;;;;;;8.40;99.90;;;;;;5028253;28;19944;-71
2023/12/30 08:34:40;;;;;;;;;;;8.40;99.90;;;;;;5031644;28;19928;-71
2023/12/30 08:37:09;;;;;;;;;;;8.50;99.90;;;;;;5032385;28;19921;-71
2023/12/30 08:39:38;;;;;;;;;;;8.50;99.90;;;;;;5025961;28;20020;-75
2023/12/30 08:42:06;;;;;;;;;;;8.50;99.90;;;;;;5023765;28;19928;-70
2023/12/30 08:44:40;;;;;;;;;;;8.50;99.90;;;;;;5031606;28;19928;-72
2023/12/30 08:47:08;;;;;;;;;;;8.60;99.90;;;;;;5030225;28;19921;-71
2023/12/30 08:49:36;;;;;;;;;;;8.60;99.90;;;;;;5021458;28;20394;-73
2023/12/30 08:52:04;;;;;;;;;;;8.70;99.90;;;;;;5011235;28;19921;-71
2023/12/30 08:54:32;;;;;;;;;;;8.70;99.90;;;;;;5009445;28;19975;-73
2023/12/30 08:57:00;;;;;;;;;;;8.80;99.90;;;;;;5006735;28;19925;-72
2023/12/30 08:59:28;;;;;;;;;;;8.90;99.90;;;;;;5008017;28;19935;-71
2023/12/30 09:01:57;;;;;;;;;;;9.00;99.90;;;;;;5008128;28;20339;-70
2023/12/30 09:04:25;;;;;;;;;;;9.00;99.90;;;;;;5008004;28;19960;-71
2023/12/30 09:06:53;;;;;;;;;;;9.00;99.90;;;;;;5008237;28;20537;-73
2023/12/30 09:09:21;;;;;;;;;;;9.00;99.90;;;;;;5006797;28;19926;-70
2023/12/30 09:11:49;;;;;;;;;;;9.10;99.90;;;;;;5006637;28;19929;-72
2023/12/30 09:14:17;;;;;;;;;;;9.00;99.90;;;;;;5005574;28;19987;-69
2023/12/30 09:16:45;;;;;;;;;;;9.10;99.90;;;;;;5005793;28;19969;-72
2023/12/30 09:19:14;;;;;;;;;;;9.00;99.90;;;;;;5006642;28;19951;-70
2023/12/30 09:21:42;;;;;;;;;;;9.10;99.90;;;;;;5008946;28;19928;-70
2023/12/30 09:24:10;;;;;;;;;;;9.10;99.90;;;;;;5004202;28;19925;-73
2023/12/30 09:26:38;;;;;;;;;;;9.20;99.90;;;;;;5005166;28;20035;-73
2023/12/30 09:29:08;;;;;;;;;;;9.30;99.90;;;;;;5006670;28;20015;-72
2023/12/30 09:31:35;;;;;;;;;;;9.40;99.90;;;;;;5005328;28;19933;-71
2023/12/30 09:34:03;;;;;;;;;;;9.50;99.90;;;;;;5010248;28;20012;-71
2023/12/30 09:36:32;;;;;;;;;;;9.70;99.90;;;;;;5005252;28;19922;-71
2023/12/30 09:39:00;;;;;;;;;;;9.80;99.90;;;;;;5003976;28;19925;-70
2023/12/30 09:41:31;;;;;;;;;;;9.80;99.90;;;;;;5008997;28;19960;-71
2023/12/30 09:43:59;;;;;;;;;;;10.00;99.90;;;;;;5006009;28;19930;-69
2023/12/30 09:46:27;;;;;;;;;;;10.20;99.90;;;;;;5010315;28;19924;-71
2023/12/30 09:48:56;;;;;;;;;;;10.50;99.90;;;;;;5005566;28;19936;-69
2023/12/30 09:51:24;;;;;;;;;;;10.60;99.90;;;;;;5006253;28;20015;-70
2023/12/30 09:53:53;;;;;;;;;;;10.70;99.90;;;;;;5004790;28;19936;-71
2023/12/30 09:56:22;;;;;;;;;;;10.90;99.90;;;;;;5008556;28;19929;-72
2023/12/30 09:58:50;;;;;;;;;;;10.80;99.90;;;;;;5004493;28;19936;-70
2023/12/30 10:01:19;;;;;;;;;;;10.70;99.90;;;;;;5006825;28;19944;-72
2023/12/30 10:03:47;;;;;;;;;;;10.90;99.90;;;;;;5004591;28;19930;-69
2023/12/30 10:06:17;;;;;;;;;;;10.80;99.90;;;;;;5006035;28;19925;-72
2023/12/30 10:08:45;;;;;;;;;;;10.90;99.90;;;;;;5005241;28;20443;-71
2023/12/30 10:11:14;;;;;;;;;;;11.10;99.90;;;;;;5005957;28;20422;-67
2023/12/30 10:13:42;;;;;;;;;;;11.10;99.90;;;;;;5029223;28;19921;-70
2023/12/30 10:16:10;;;;;;;;;;;11.20;99.90;;;;;;5029673;28;19921;-70
2023/12/30 10:18:38;;;;;;;;;;;11.10;99.90;;;;;;5029762;28;19943;-69
2023/12/30 10:21:06;;;;;;;;;;;11.10;99.90;;;;;;5029280;28;19933;-71
2023/12/30 10:23:35;;;;;;;;;;;11.00;99.90;;;;;;5028385;28;19971;-72
2023/12/30 10:26:03;;;;;;;;;;;10.90;99.90;;;;;;5028739;28;19921;-69
2023/12/30 10:28:32;;;;;;;;;;;10.80;99.90;;;;;;5029014;28;19920;-69
2023/12/30 10:31:01;;;;;;;;;;;10.60;99.90;;;;;;5029865;28;19921;-73
2023/12/30 10:33:30;;;;;;;;;;;10.50;99.90;;;;;;5030007;28;19932;-70
2023/12/30 10:35:58;;;;;;;;;;;10.50;99.90;;;;;;5030580;28;19924;-70
2023/12/30 10:38:26;;;;;;;;;;;10.50;99.90;;;;;;5030949;28;20392;-72
2023/12/30 10:40:54;;;;;;;;;;;10.50;99.90;;;;;;5030393;28;20343;-71
2023/12/30 10:43:22;;;;;;;;;;;10.60;99.90;;;;;;5030374;28;19925;-71
2023/12/30 10:45:56;;;;;;;;;;;10.70;99.90;;;;;;5030824;28;20098;-69
2023/12/30 10:48:24;;;;;;;;;;;10.90;99.90;;;;;;5023305;28;19921;-70
2023/12/30 10:50:53;;;;;;;;;;;11.10;99.90;;;;;;5030348;28;19928;-71
2023/12/30 10:53:26;;;;;;;;;;;11.30;99.90;;;;;;5030559;28;19975;-69
2023/12/30 10:55:56;;;;;;;;;;;11.50;99.90;;;;;;5030130;28;19951;-69
2023/12/30 10:58:25;;;;;;;;;;;11.50;99.90;;;;;;5030794;28;19921;-69
2023/12/30 11:00:57;;;;;;;;;;;11.40;99.90;;;;;;5030191;28;20019;-68
2023/12/30 11:03:26;;;;;;;;;;;11.50;99.90;;;;;;5029913;28;19932;-69
2023/12/30 11:05:57;;;;;;;;;;;11.40;99.90;;;;;;5030442;28;19921;-68
2023/12/30 11:08:25;;;;;;;;;;;11.40;99.90;;;;;;5031169;28;20380;-69
2023/12/30 11:10:52;;;;;;;;;;;11.50;99.90;;;;;;5029607;28;19928;-71
2023/12/30 11:13:21;;;;;;;;;;;11.50;99.90;;;;;;5022616;28;19929;-69
2023/12/30 11:15:49;;;;;;;;;;;11.60;99.90;;;;;;5034207;28;19921;-70
2023/12/30 11:18:38;;;;;;;;;;;11.60;99.90;;;;;;5033874;28;19971;-69
2023/12/30 11:21:06;;;;;;;;;;;11.70;99.90;;;;;;5033898;28;19975;-70
2023/12/30 11:23:35;;;;;;;;;;;11.90;99.90;;;;;;5033835;28;20333;-71
2023/12/30 11:26:05;;;;;;;;;;;12.00;99.90;;;;;;5015726;28;19979;-70
2023/12/30 11:28:33;;;;;;;;;;;12.20;99.90;;;;;;5033617;28;19968;-69
2023/12/30 11:31:01;;;;;;;;;;;12.30;99.90;;;;;;5033780;28;20015;-69
2023/12/30 11:33:31;;;;;;;;;;;12.30;99.90;;;;;;5033651;28;20398;-69
2023/12/30 11:36:00;;;;;;;;;;;12.40;99.90;;;;;;5033616;28;19932;-69
2023/12/30 11:38:30;;;;;;;;;;;12.40;99.90;;;;;;5033426;28;20329;-69
2023/12/30 11:41:00;;;;;;;;;;;12.60;99.90;;;;;;5033422;28;19925;-70
2023/12/30 11:43:28;;;;;;;;;;;12.70;99.90;;;;;;5033469;28;19932;-70
2023/12/30 11:45:56;;;;;;;;;;;12.50;99.90;;;;;;5033397;28;20471;-71
2023/12/30 11:48:24;;;;;;;;;;;12.50;99.90;;;;;;5025368;28;19921;-69
2023/12/30 11:50:54;;;;;;;;;;;12.60;99.90;;;;;;5033205;28;20008;-69
2023/12/30 11:53:22;;;;;;;;;;;12.80;99.90;;;;;;5033298;28;19925;-69
2023/12/30 11:55:50;;;;;;;;;;;12.90;99.90;;;;;;5033501;28;19971;-70
2023/12/30 11:58:18;;;;;;;;;;;13.00;99.90;;;;;;5033431;28;20220;-70
2023/12/30 12:00:46;;;;;;;;;;;13.10;99.90;;;;;;5032955;28;19927;-69
2023/12/30 12:03:14;;;;;;;;;;;13.30;99.90;;;;;;5032860;28;20319;-70
2023/12/30 12:05:41;;;;;;;;;;;13.40;99.90;;;;;;5032945;28;19927;-70
2023/12/30 12:08:11;;;;;;;;;;;13.00;99.90;;;;;;5030853;28;19921;-71
2023/12/30 12:10:39;;;;;;;;;;;12.80;99.90;;;;;;5030039;28;19971;-69
2023/12/30 12:13:09;;;;;;;;;;;12.80;99.90;;;;;;5032896;28;19927;-69
2023/12/30 12:15:37;;;;;;;;;;;12.70;99.90;;;;;;5032835;28;19921;-69
2023/12/30 12:18:05;;;;;;;;;;;12.80;99.90;;;;;;5029542;28;19925;-69
2023/12/30 12:20:37;;;;;;;;;;;12.70;99.90;;;;;;5032538;28;19921;-69
2023/12/30 12:23:05;;;;;;;;;;;12.50;99.90;;;;;;5032815;28;19925;-70
2023/12/30 12:25:34;;;;;;;;;;;12.30;99.90;;;;;;5031269;28;19968;-72
2023/12/30 12:28:06;;;;;;;;;;;12.00;99.90;;;;;;5032948;28;19928;-68
2023/12/30 12:30:35;;;;;;;;;;;11.80;99.90;;;;;;5032460;28;19936;-71
2023/12/30 12:33:02;;;;;;;;;;;11.80;99.90;;;;;;5032602;28;20502;-68
2023/12/30 12:35:32;;;;;;;;;;;11.60;99.90;;;;;;5032094;28;19936;-70
2023/12/30 12:38:00;;;;;;;;;;;11.50;99.90;;;;;;5031704;28;19933;-70
2023/12/30 12:40:27;;;;;;;;;;;11.50;99.90;;;;;;5030954;28;19925;-70
2023/12/30 12:42:56;;;;;;;;;;;11.50;99.90;;;;;;5032336;28;20039;-70
2023/12/30 12:45:24;;;;;;;;;;;11.50;99.90;;;;;;5028735;28;19921;-70
2023/12/30 12:47:55;;;;;;;;;;;11.60;99.90;;;;;;5030812;28;19932;-70
2023/12/30 12:50:23;;;;;;;;;;;11.60;99.90;;;;;;5029887;28;19956;-70
2023/12/30 12:52:51;;;;;;;;;;;11.70;99.90;;;;;;5032194;28;19932;-70
2023/12/30 12:55:19;;;;;;;;;;;11.60;99.90;;;;;;5030933;28;19954;-71
2023/12/30 12:57:47;;;;;;;;;;;11.60;99.90;;;;;;5027900;28;19921;-71
2023/12/30 13:00:18;;;;;;;;;;;11.60;99.90;;;;;;5028346;28;19925;-71
2023/12/30 13:02:46;;;;;;;;;;;11.50;99.90;;;;;;5031185;28;19921;-71
2023/12/30 13:05:17;;;;;;;;;;;11.50;99.90;;;;;;5029775;28;19925;-71
2023/12/30 13:07:44;;;;;;;;;;;11.40;99.90;;;;;;5031586;28;20427;-71
2023/12/30 13:10:35;;;;;;;;;;;11.20;99.90;;;;;;5030139;28;19928;-70
2023/12/30 13:13:06;;;;;;;;;;;11.20;99.90;;;;;;5028164;28;19921;-70
2023/12/30 13:15:36;;;;;;;;;;;11.10;99.90;;;;;;5030343;28;19921;-70
2023/12/30 13:18:09;;;;;;;;;;;11.00;99.90;;;;;;5030852;28;19921;-70
2023/12/30 13:20:38;;;;;;;;;;;10.90;99.90;;;;;;5026342;28;19928;-71
2023/12/30 13:23:09;;;;;;;;;;;10.80;99.90;;;;;;5030588;28;20020;-72
2023/12/30 13:25:37;;;;;;;;;;;10.80;99.90;;;;;;5024836;28;19929;-69
2023/12/30 13:28:06;;;;;;;;;;;10.70;99.90;;;;;;5027366;28;19928;-70
2023/12/30 13:30:36;;;;;;;;;;;10.60;99.90;;;;;;5030524;28;19960;-70
2023/12/30 13:33:08;;;;;;;;;;;10.60;99.90;;;;;;5030844;28;19921;-67
2023/12/30 13:35:37;;;;;;;;;;;10.60;99.90;;;;;;5029486;28;19933;-70
2023/12/30 13:38:09;;;;;;;;;;;10.50;99.90;;;;;;5030593;28;19921;-71
2023/12/30 13:40:38;;;;;;;;;;;10.50;99.90;;;;;;5029756;28;20012;-70
2023/12/30 13:43:09;;;;;;;;;;;10.50;99.90;;;;;;5030752;28;19928;-70
2023/12/30 13:45:43;;;;;;;;;;;10.40;99.90;;;;;;5030965;28;19931;-73
2023/12/30 13:48:37;;;;;;;;;;;10.40;99.90;;;;;;5027404;28;19928;-72
2023/12/30 13:51:04;;;;;;;;;;;10.40;99.90;;;;;;5026820;28;19924;-71
2023/12/30 13:53:32;;;;;;;;;;;10.50;99.90;;;;;;5030024;28;19974;-70
2023/12/30 13:56:01;;;;;;;;;;;10.50;99.90;;;;;;5030786;28;19924;-71
2023/12/30 13:58:29;;;;;;;;;;;10.50;99.90;;;;;;5029740;28;19931;-70
2023/12/30 14:00:59;;;;;;;;;;;10.40;99.90;;;;;;5030219;28;20154;-69
2023/12/30 14:03:27;;;;;;;;;;;10.40;99.90;;;;;;5029906;28;19971;-70
2023/12/30 14:05:55;;;;;;;;;;;10.30;99.90;;;;;;5030312;28;20393;-70
2023/12/30 14:08:35;;;;;;;;;;;10.30;99.90;;;;;;5029176;28;19929;-70
2023/12/30 14:11:20;;;;;;;;;;;10.30;99.90;;;;;;5030661;28;20459;-71
2023/12/30 14:13:50;;;;;;;;;;;10.30;99.90;;;;;;5026616;28;19921;-70
2023/12/30 14:16:19;;;;;;;;;;;10.30;99.90;;;;;;5029284;28;19952;-70
2023/12/30 14:18:47;;;;;;;;;;;10.30;99.90;;;;;;5027842;28;19928;-70
2023/12/30 14:21:16;;;;;;;;;;;10.20;99.90;;;;;;5027249;28;19928;-70
2023/12/30 14:23:44;;;;;;;;;;;10.20;99.90;;;;;;5029636;28;19927;-70
2023/12/30 14:26:12;;;;;;;;;;;10.10;99.90;;;;;;5013961;28;19928;-73
2023/12/30 14:28:40;;;;;;;;;;;10.10;99.90;;;;;;5017965;28;19937;-72
2023/12/30 14:31:09;;;;;;;;;;;10.20;99.90;;;;;;5017898;28;20016;-70
2023/12/30 14:33:38;;;;;;;;;;;10.20;99.90;;;;;;5019486;28;19929;-73